createdAt,value
2022-11-09T06:15:55.715Z,17.92
2022-11-09T06:25:55.830Z,15.54
2022-11-09T06:35:56.674Z,13.19
2022-11-09T06:45:55.834Z,12.73
2022-11-09T06:55:55.752Z,11.57
2022-11-09T07:05:55.732Z,11.41
2022-11-09T07:15:55.951Z,10.88
2022-11-09T07:25:56.024Z,14.63
2022-11-09T07:35:56.282Z,15.85
2022-11-09T07:45:56.292Z,13.98
2022-11-09T07:55:56.353Z,12.80
2022-11-09T08:05:56.782Z,15.02
2022-11-09T08:15:56.865Z,15.92
2022-11-09T08:25:56.951Z,16.74
2022-11-09T08:35:57.001Z,18.41
2022-11-09T08:45:57.284Z,14.35
2022-11-09T08:55:57.169Z,11.82
2022-11-09T09:05:57.145Z,12.30
2022-11-09T09:15:57.149Z,14.81
2022-11-09T09:25:58.711Z,16.56
2022-11-09T09:35:57.239Z,13.79
2022-11-09T09:45:58.121Z,13.46
2022-11-09T09:55:57.076Z,12.00
2022-11-09T10:05:57.318Z,12.51
2022-11-09T10:15:57.210Z,13.74
2022-11-09T10:26:04.609Z,13.35
2022-11-09T10:35:57.325Z,13.59
2022-11-09T10:45:57.289Z,13.29
2022-11-09T10:55:57.042Z,16.97
2022-11-09T11:05:57.142Z,17.86
2022-11-09T11:15:57.369Z,17.20
2022-11-09T11:25:57.161Z,17.26
2022-11-09T11:35:57.313Z,13.23
2022-11-09T11:45:57.260Z,13.78
2022-11-09T11:55:57.321Z,11.63
2022-11-09T12:05:57.284Z,13.25
2022-11-09T12:15:57.342Z,11.49
2022-11-09T12:25:57.192Z,9.73
2022-11-09T12:35:57.198Z,11.18
2022-11-09T12:45:57.259Z,11.79
2022-11-09T12:55:57.231Z,10.27
2022-11-09T13:06:02.250Z,9.57
2022-11-09T13:15:57.259Z,9.97
2022-11-09T13:25:57.405Z,10.66
2022-11-09T13:35:57.379Z,12.33
2022-11-09T13:45:57.233Z,14.18
2022-11-09T13:55:57.380Z,14.76
2022-11-09T14:05:57.415Z,15.54
2022-11-09T14:15:57.155Z,20.04
2022-11-09T14:25:57.291Z,17.36
2022-11-09T14:35:57.223Z,18.12
2022-11-09T14:45:57.427Z,15.30
2022-11-09T14:55:57.328Z,15.12
2022-11-09T15:05:57.312Z,18.36
2022-11-09T15:15:57.373Z,16.73
2022-11-09T15:25:57.531Z,17.64
2022-11-09T15:35:57.446Z,15.31
2022-11-09T15:45:57.553Z,14.34
2022-11-09T15:55:57.300Z,14.43
2022-11-09T16:05:57.435Z,12.49
2022-11-09T16:15:57.349Z,13.87
2022-11-09T16:25:57.451Z,15.49
2022-11-09T16:35:57.272Z,15.41
2022-11-09T16:45:57.349Z,13.10
2022-11-09T16:55:57.569Z,14.40
2022-11-09T17:05:57.369Z,14.75
2022-11-09T17:15:57.452Z,16.60
2022-11-09T17:25:57.459Z,15.43
2022-11-09T17:35:57.535Z,14.85
2022-11-09T17:45:57.420Z,11.66
2022-11-09T17:55:57.337Z,12.19
2022-11-09T18:05:57.514Z,12.92
2022-11-09T18:15:57.549Z,13.45
2022-11-09T18:25:57.542Z,11.37
2022-11-09T18:35:57.441Z,9.67
2022-11-09T18:45:57.514Z,7.91
2022-11-09T18:55:57.642Z,7.20
2022-11-09T19:05:57.452Z,9.19
2022-11-09T19:15:58.457Z,12.35
